Latest Weather Observations for Inner Beacon

IDQ60901

Issued at 4:21 pm EST Saturday 28 January 2023 (issued every 10 minutes, with the page automatically refreshed every 10 minutes)

About weather observations | Map of Brisbane area stations | Latest observations for Brisbane area | Other Formats
Station Details ID: 040926 Name: INNER RECIPROCAL MARKER Lat: -27.26 Lon: 153.24 Height: 10.0 m
Data from the previous 72 hours. | See also: Recent months at Inner Beacon
Date/Time
EST
Temp
°C
App
Temp
°C
Dew
Point
°C
Rel
Hum
%
Delta-T
°C
Wind Press
QNH
hPa
Press
MSL
hPa
Rain since
9am
mm
Dir  Spd
km/h
Gust
km/h
Spd
kts
Gust
kts
28/04:00pm - - - - - E 15 20 8 11 - - -
28/03:30pm - - - - - E 17 20 9 11 - - -
28/03:00pm - - - - - E 19 26 10 14 - - -
28/02:30pm - - - - - ENE 13 17 7 9 - - -
28/02:00pm - - - - - ENE 9 13 5 7 - - -
28/01:30pm - - - - - NE 13 15 7 8 - - -
28/01:00pm - - - - - NE 13 17 7 9 - - -
28/12:30pm - - - - - ENE 13 17 7 9 - - -
28/12:00pm - - - - - NNE 7 9 4 5 - - -
28/11:30am - - - - - NE 6 9 3 5 - - -
28/11:00am - - - - - CALM 0 0 0 0 - - -
28/10:30am - - - - - CALM 0 0 0 0 - - -
28/10:00am - - - - - CALM 0 4 0 2 - - -
28/09:30am - - - - - NNW 6 7 3 4 - - -
28/09:00am - - - - - WNW 2 6 1 3 - - -
28/08:30am - - - - - WNW 6 6 3 3 - - -
28/08:00am - - - - - NW 6 7 3 4 - - -
28/07:30am - - - - - N 7 9 4 5 - - -
28/07:00am - - - - - NE 4 6 2 3 - - -
28/06:30am - - - - - CALM 0 0 0 0 - - -
28/06:00am - - - - - CALM 0 0 0 0 - - -
28/05:30am - - - - - CALM 0 0 0 0 - - -
28/05:00am - - - - - NE 2 4 1 2 - - -
28/04:30am - - - - - CALM 0 0 0 0 - - -
28/04:00am - - - - - E 2 6 1 3 - - -
28/03:30am - - - - - E 6 7 3 4 - - -
28/03:00am - - - - - SE 9 13 5 7 - - -
28/02:30am - - - - - NNE 4 6 2 3 - - -
28/02:00am - - - - - NNE 4 6 2 3 - - -
28/01:30am - - - - - CALM 0 0 0 0 - - -
28/01:00am - - - - - NNE 4 6 2 3 - - -
28/12:30am - - - - - NE 9 11 5 6 - - -
28/12:00am - - - - - ENE 11 13 6 7 - - -
 
Date/Time
EST
Temp
°C
App
Temp
°C
Dew
Point
°C
Rel
Hum
%
Delta-T
°C
Wind Press
QNH
hPa
Press
MSL
hPa
Rain since
9am
mm
Dir  Spd
km/h
Gust
km/h
Spd
kts
Gust
kts
27/11:30pm - - - - - E 4 7 2 4 - - -
27/11:00pm - - - - - NNE 7 9 4 5 - - -
27/10:30pm - - - - - N 6 7 3 4 - - -
27/10:00pm - - - - - N 9 11 5 6 - - -
27/09:30pm - - - - - N 13 15 7 8 - - -
27/09:00pm - - - - - N 20 22 11 12 - - -
27/08:30pm - - - - - NE 20 24 11 13 - - -
27/08:00pm - - - - - NNE 17 20 9 11 - - -
27/07:30pm - - - - - NE 13 19 7 10 - - -
27/07:00pm - - - - - NNE 13 17 7 9 - - -
27/06:30pm - - - - - ENE 17 20 9 11 - - -
27/06:00pm - - - - - E 11 15 6 8 - - -
27/05:30pm - - - - - ENE 22 28 12 15 - - -
27/05:00pm - - - - - ENE 17 19 9 10 - - -
27/04:30pm - - - - - E 13 17 7 9 - - -
27/04:00pm - - - - - E 17 20 9 11 - - -
27/03:30pm - - - - - E 11 15 6 8 - - -
27/03:00pm - - - - - E 11 13 6 7 - - -
27/02:30pm - - - - - ESE 11 15 6 8 - - -
27/02:00pm - - - - - SE 13 17 7 9 - - -
27/01:30pm - - - - - E 9 11 5 6 - - -
27/01:00pm - - - - - SSE 13 17 7 9 - - -
27/12:30pm - - - - - SSE 9 11 5 6 - - -
27/12:00pm - - - - - SSE 6 7 3 4 - - -
27/11:30am - - - - - SE 13 17 7 9 - - -
27/11:00am - - - - - SSE 9 13 5 7 - - -
27/10:30am - - - - - SE 13 15 7 8 - - -
27/10:00am - - - - - SSE 13 15 7 8 - - -
27/09:30am - - - - - SSE 9 13 5 7 - - -
27/09:00am - - - - - S 13 17 7 9 - - -
27/08:30am - - - - - S 17 22 9 12 - - -
27/08:00am - - - - - S 22 26 12 14 - - -
27/07:30am - - - - - S 28 32 15 17 - - -
27/07:00am - - - - - S 22 26 12 14 - - -
27/06:30am - - - - - SSW 7 9 4 5 - - -
27/06:00am - - - - - WNW 9 11 5 6 - - -
27/05:30am - - - - - NNW 17 19 9 10 - - -
27/05:00am - - - - - NNW 13 17 7 9 - - -
27/04:30am - - - - - NNW 17 19 9 10 - - -
27/04:00am - - - - - NNW 15 19 8 10 - - -
27/03:30am - - - - - NNW 11 13 6 7 - - -
27/03:00am - - - - - NNW 17 19 9 10 - - -
27/02:30am - - - - - NNW 20 26 11 14 - - -
27/02:00am - - - - - NNW 26 30 14 16 - - -
27/01:30am - - - - - N 28 35 15 19 - - -
27/01:00am - - - - - N 26 32 14 17 - - -
27/12:30am - - - - - N 24 28 13 15 - - -
27/12:00am - - - - - N 13 17 7 9 - - -
 
Date/Time
EST
Temp
°C
App
Temp
°C
Dew
Point
°C
Rel
Hum
%
Delta-T
°C
Wind Press
QNH
hPa
Press
MSL
hPa
Rain since
9am
mm
Dir  Spd
km/h
Gust
km/h
Spd
kts
Gust
kts
26/11:30pm - - - - - N 15 19 8 10 - - -
26/11:00pm - - - - - NNW 19 22 10 12 - - -
26/10:30pm - - - - - N 24 28 13 15 - - -
26/10:00pm - - - - - N 28 32 15 17 - - -
26/09:30pm - - - - - N 28 33 15 18 - - -
26/09:00pm - - - - - N 30 35 16 19 - - -
26/08:30pm - - - - - N 30 35 16 19 - - -
26/08:00pm - - - - - N 28 33 15 18 - - -
26/07:30pm - - - - - N 30 35 16 19 - - -
26/07:00pm - - - - - N 32 37 17 20 - - -
26/06:30pm - - - - - N 32 35 17 19 - - -
26/06:00pm - - - - - N 32 35 17 19 - - -
26/05:30pm - - - - - NNE 32 37 17 20 - - -
26/05:00pm - - - - - NNE 33 39 18 21 - - -
26/04:30pm - - - - - NNE 33 39 18 21 - - -
26/04:00pm - - - - - NNE 33 39 18 21 - - -
26/03:30pm - - - - - NNE 28 33 15 18 - - -
26/03:00pm - - - - - NNE 28 33 15 18 - - -
26/02:30pm - - - - - NNE 28 32 15 17 - - -
26/02:00pm - - - - - N 26 30 14 16 - - -
26/01:30pm - - - - - N 26 30 14 16 - - -
26/01:00pm - - - - - NNE 22 26 12 14 - - -
26/12:30pm - - - - - N 20 24 11 13 - - -
26/12:00pm - - - - - NNE 17 19 9 10 - - -
26/11:30am - - - - - NNE 11 13 6 7 - - -
26/11:00am - - - - - NNE 7 11 4 6 - - -
26/10:30am - - - - - N 6 7 3 4 - - -
26/10:00am - - - - - CALM 0 0 0 0 - - -
26/09:30am - - - - - WNW 2 4 1 2 - - -
26/09:00am - - - - - WNW 2 6 1 3 - - -
26/08:30am - - - - - NW 6 7 3 4 - - -
26/08:00am - - - - - WNW 7 9 4 5 - - -
26/07:30am - - - - - NW 6 7 3 4 - - -
26/07:00am - - - - - WNW 9 11 5 6 - - -
26/06:30am - - - - - WNW 9 13 5 7 - - -
26/06:00am - - - - - NW 11 13 6 7 - - -
26/05:30am - - - - - NW 13 15 7 8 - - -
26/05:00am - - - - - NNW 13 17 7 9 - - -
26/04:30am - - - - - NNW 13 15 7 8 - - -
26/04:00am - - - - - NNW 15 17 8 9 - - -
26/03:30am - - - - - N 15 19 8 10 - - -
26/03:00am - - - - - N 15 19 8 10 - - -
26/02:30am - - - - - NNE 13 15 7 8 - - -
26/02:00am - - - - - N 13 15 7 8 - - -
26/01:30am - - - - - N 15 17 8 9 - - -
26/01:00am - - - - - N 17 20 9 11 - - -
26/12:30am - - - - - N 19 22 10 12 - - -
26/12:00am - - - - - N 20 22 11 12 - - -
 
Date/Time
EST
Temp
°C
App
Temp
°C
Dew
Point
°C
Rel
Hum
%
Delta-T
°C
Wind Press
QNH
hPa
Press
MSL
hPa
Rain since
9am
mm
Dir  Spd
km/h
Gust
km/h
Spd
kts
Gust
kts
25/11:30pm - - - - - N 22 24 12 13 - - -
25/11:00pm - - - - - N 24 28 13 15 - - -
25/10:30pm - - - - - N 24 28 13 15 - - -
25/10:00pm - - - - - N 26 32 14 17 - - -
25/09:30pm - - - - - N 28 32 15 17 - - -
25/09:00pm - - - - - N 20 24 11 13 - - -
25/08:30pm - - - - - N 26 32 14 17 - - -
25/08:00pm - - - - - N 30 35 16 19 - - -
25/07:30pm - - - - - N 26 32 14 17 - - -
25/07:00pm - - - - - N 24 28 13 15 - - -
25/06:30pm - - - - - N 26 30 14 16 - - -
25/06:00pm - - - - - N 26 30 14 16 - - -
25/05:30pm - - - - - N 26 30 14 16 - - -
25/05:00pm - - - - - N 26 30 14 16 - - -
25/04:30pm - - - - - N 24 30 13 16 - - -

Latest Capital City Observations: Canberra | Sydney | Melbourne | Brisbane | Adelaide | Perth | Hobart | Darwin

Other formats

Comma delimited format used in spreadsheet applications
http://www.bom.gov.au/fwo/IDQ60901/IDQ60901.94590.axf

JavaScript Object Notation format (JSON) in row-major order
http://www.bom.gov.au/fwo/IDQ60901/IDQ60901.94590.json

Data quality

Most of these data are generated automatically and are frequently updated. Quality checks on data are not normally performed. It is possible for incorrect values to appear. Refer to information at About Latest Weather Observations and please check the disclaimer before using these data.